Time;durP1;ratioP1;P1;durP2;ratioP2;P2;SDS_P1;SDS_P2;PMS_P1;PMS_P2;Temp;Humidity;BMP_temperature;BMP_pressure;BME280_temperature;BME280_humidity;BME280_pressure;Samples;Min_cycle;Max_cycle;Signal;HPM_P1;HPM_P2
2023/11/19 00:00:26;;;;;;;4.83;2.13;;;;;;;8.40;100.00;96295.84;5036973;28;20201;-68
2023/11/19 00:02:52;;;;;;;2.50;1.70;;;;;;;8.52;100.00;96296.19;5035062;28;20585;-68
2023/11/19 00:05:20;;;;;;;5.50;2.03;;;;;;;8.57;100.00;96293.09;5035818;28;20239;-68
2023/11/19 00:07:47;;;;;;;3.10;2.07;;;;;;;8.48;100.00;96294.06;5036365;28;20220;-68
2023/11/19 00:10:18;;;;;;;4.70;2.20;;;;;;;8.40;100.00;96288.81;5036298;28;20201;-68
2023/11/19 00:12:46;;;;;;;4.47;2.10;;;;;;;8.39;100.00;96289.78;5036693;28;20212;-68
2023/11/19 00:15:13;;;;;;;2.80;1.90;;;;;;;8.35;100.00;96285.84;5036020;28;20599;-68
2023/11/19 00:17:44;;;;;;;3.97;2.20;;;;;;;8.40;100.00;96293.22;5036684;28;20212;-68
2023/11/19 00:20:11;;;;;;;5.03;1.87;;;;;;;8.47;100.00;96278.47;5036918;28;20228;-68
2023/11/19 00:22:39;;;;;;;2.80;1.70;;;;;;;8.59;100.00;96263.06;5036239;28;20201;-68
2023/11/19 00:25:07;;;;;;;3.23;1.90;;;;;;;8.47;100.00;96258.28;5035510;28;20220;-67
2023/11/19 00:27:33;;;;;;;3.80;2.00;;;;;;;8.49;100.00;96258.94;5036615;28;20212;-68
2023/11/19 00:30:00;;;;;;;2.00;1.50;;;;;;;8.54;100.00;96249.59;5036258;28;20229;-67
2023/11/19 00:32:26;;;;;;;3.67;2.10;;;;;;;8.51;100.00;96233.34;5035812;28;20209;-68
2023/11/19 00:34:53;;;;;;;2.87;1.97;;;;;;;8.40;100.00;96224.97;5035803;28;20237;-68
2023/11/19 00:37:19;;;;;;;3.97;2.20;;;;;;;8.60;100.00;96227.09;5035899;28;20568;-68
2023/11/19 00:39:47;;;;;;;3.17;1.80;;;;;;;8.54;100.00;96228.56;5035423;28;20204;-68
2023/11/19 00:42:14;;;;;;;2.97;2.00;;;;;;;8.46;100.00;96224.31;5036057;28;20212;-68
2023/11/19 00:44:41;;;;;;;2.97;1.93;;;;;;;8.46;100.00;96221.69;5035948;28;20229;-68
2023/11/19 00:47:07;;;;;;;3.33;1.80;;;;;;;8.62;100.00;96233.81;5036084;28;20675;-68
2023/11/19 00:49:34;;;;;;;2.37;1.67;;;;;;;8.46;100.00;96226.94;5036274;28;20236;-68
2023/11/19 00:52:00;;;;;;;3.73;1.70;;;;;;;8.43;100.00;96238.59;5036646;28;20685;-68
2023/11/19 00:54:27;;;;;;;2.27;1.50;;;;;;;8.56;100.00;96241.53;5036017;28;20225;-68
2023/11/19 00:56:55;;;;;;;2.80;1.87;;;;;;;8.75;100.00;96234.13;5035516;28;20204;-68
2023/11/19 00:59:21;;;;;;;3.13;1.90;;;;;;;8.64;100.00;96239.75;5035590;28;20201;-68
2023/11/19 01:01:48;;;;;;;2.80;1.80;;;;;;;8.63;100.00;96238.09;5036181;28;20197;-68
2023/11/19 01:04:15;;;;;;;2.93;1.90;;;;;;;8.42;100.00;96225.63;5035881;28;20228;-68
2023/11/19 01:06:42;;;;;;;4.30;1.63;;;;;;;8.62;100.00;96225.13;5035354;28;20204;-69
2023/11/19 01:09:09;;;;;;;2.10;1.40;;;;;;;8.74;100.00;96223.78;5036430;28;20225;-68
2023/11/19 01:11:36;;;;;;;2.67;1.73;;;;;;;8.62;100.00;96225.94;5036321;28;20574;-68
2023/11/19 01:14:04;;;;;;;2.83;1.47;;;;;;;8.72;100.00;96231.84;5035771;28;20817;-68
2023/11/19 01:16:31;;;;;;;3.37;1.97;;;;;;;8.77;100.00;96224.28;5035208;28;20205;-68
2023/11/19 01:18:57;;;;;;;3.63;2.00;;;;;;;8.79;100.00;96222.31;5035646;28;20201;-67
2023/11/19 01:21:24;;;;;;;2.43;1.80;;;;;;;8.69;100.00;96215.59;5035816;28;20208;-68
2023/11/19 01:23:50;;;;;;;2.73;1.63;;;;;;;8.81;100.00;96215.09;5035986;28;20205;-68
2023/11/19 01:26:17;;;;;;;4.03;2.17;;;;;;;8.83;100.00;96202.59;5035688;28;20216;-68
2023/11/19 01:28:44;;;;;;;2.43;1.97;;;;;;;8.85;100.00;96210.31;5035575;28;20221;-68
2023/11/19 01:31:13;;;;;;;2.90;2.20;;;;;;;8.97;100.00;96204.53;5035902;28;20201;-68
2023/11/19 01:33:40;;;;;;;3.33;2.00;;;;;;;8.96;100.00;96200.28;5036014;28;20250;-68
2023/11/19 01:36:07;;;;;;;3.90;2.13;;;;;;;8.96;100.00;96187.16;5033225;28;20838;-68
2023/11/19 01:38:34;;;;;;;2.43;1.60;;;;;;;9.06;100.00;96195.63;5035777;28;20205;-68
2023/11/19 01:41:01;;;;;;;3.27;2.13;;;;;;;8.89;100.00;96185.34;5034957;28;20208;-68
2023/11/19 01:43:35;;;;;;;3.23;2.03;;;;;;;9.10;100.00;96173.31;5035987;28;20575;-68
2023/11/19 01:46:02;;;;;;;2.57;1.77;;;;;;;9.04;100.00;96175.75;5034432;28;20205;-68
2023/11/19 01:48:32;;;;;;;4.17;2.00;;;;;;;9.11;100.00;96167.88;5036033;28;20248;-67
2023/11/19 01:50:59;;;;;;;2.77;1.97;;;;;;;8.97;100.00;96170.38;5035346;28;20209;-68
2023/11/19 01:53:26;;;;;;;2.77;1.83;;;;;;;9.17;100.00;96163.75;5035949;28;20592;-68
2023/11/19 01:55:52;;;;;;;5.67;3.03;;;;;;;9.12;100.00;96160.78;5035112;28;20228;-67
2023/11/19 01:58:19;;;;;;;4.50;2.40;;;;;;;9.17;100.00;96164.53;5035760;28;20232;-68
2023/11/19 02:00:46;;;;;;;3.73;1.80;;;;;;;9.11;100.00;96169.66;5035234;28;20208;-68
2023/11/19 02:03:13;;;;;;;3.17;2.13;;;;;;;9.09;100.00;96163.78;5035913;28;20201;-67
2023/11/19 02:05:42;;;;;;;3.10;2.00;;;;;;;9.24;100.00;96152.38;5034965;28;20235;-67
2023/11/19 02:08:08;;;;;;;2.33;1.60;;;;;;;9.21;100.00;96150.06;5034752;28;20205;-68
2023/11/19 02:10:35;;;;;;;3.23;1.90;;;;;;;9.18;100.00;96144.34;5035816;28;20732;-67
2023/11/19 02:13:04;;;;;;;2.97;1.90;;;;;;;9.21;100.00;96133.50;5036071;28;20896;-68
2023/11/19 02:15:31;;;;;;;2.67;1.97;;;;;;;9.30;100.00;96132.47;5034781;28;20884;-68
2023/11/19 02:17:58;;;;;;;4.10;2.10;;;;;;;9.21;100.00;96130.84;5035132;28;20201;-68
2023/11/19 02:20:26;;;;;;;3.20;1.77;;;;;;;9.45;100.00;96120.22;5036296;28;20193;-68
2023/11/19 02:22:54;;;;;;;2.77;1.60;;;;;;;9.37;100.00;96112.38;5035617;28;20271;-68
2023/11/19 02:25:26;;;;;;;3.17;1.80;;;;;;;9.43;100.00;96109.03;5034322;28;20225;-67
2023/11/19 02:27:59;;;;;;;5.70;2.43;;;;;;;9.58;100.00;96099.44;5038840;28;20235;-68
2023/11/19 02:30:26;;;;;;;4.13;2.03;;;;;;;9.41;100.00;96103.16;5039101;28;20311;-68
2023/11/19 02:32:53;;;;;;;4.03;1.90;;;;;;;9.57;100.00;96106.53;5039141;28;20211;-68
2023/11/19 02:35:21;;;;;;;3.73;1.70;;;;;;;9.33;100.00;96113.69;5038113;28;20227;-68
2023/11/19 02:37:48;;;;;;;3.00;1.90;;;;;;;9.41;100.00;96108.41;5038883;28;20205;-67
2023/11/19 02:40:14;;;;;;;2.83;1.83;;;;;;;9.41;100.00;96109.22;5038109;28;20557;-68
2023/11/19 02:42:41;;;;;;;3.43;1.77;;;;;;;9.41;100.00;96118.94;5038922;28;20655;-67
2023/11/19 02:45:14;;;;;;;3.37;2.20;;;;;;;9.62;100.00;96116.50;5038229;28;20351;-68
2023/11/19 02:47:40;;;;;;;5.20;2.30;;;;;;;9.55;100.00;96121.66;5039102;28;20205;-68
2023/11/19 02:50:13;;;;;;;4.57;2.27;;;;;;;9.54;100.00;96114.75;5038455;28;20267;-68
2023/11/19 02:52:40;;;;;;;2.90;2.10;;;;;;;9.35;100.00;96109.91;5039251;28;20204;-68
2023/11/19 02:55:09;;;;;;;2.47;1.60;;;;;;;9.39;100.00;96110.38;5037807;28;20221;-68
2023/11/19 02:57:36;;;;;;;2.67;1.67;;;;;;;9.33;100.00;96100.56;5038823;28;20205;-68
2023/11/19 03:00:11;;;;;;;2.60;1.97;;;;;;;9.51;100.00;96096.69;5038494;28;20197;-68
2023/11/19 03:02:44;;;;;;;2.57;1.70;;;;;;;9.68;100.00;96102.66;5038464;28;20201;-68
2023/11/19 03:05:11;;;;;;;4.70;1.80;;;;;;;9.68;100.00;96106.91;5037714;28;20647;-68
2023/11/19 03:07:38;;;;;;;3.60;2.13;;;;;;;9.68;100.00;96102.66;5038855;28;20201;-68
2023/11/19 03:10:05;;;;;;;3.87;1.67;;;;;;;9.42;100.00;96089.00;5038027;28;20224;-68
2023/11/19 03:12:32;;;;;;;2.53;1.50;;;;;;;9.57;100.00;96096.00;5038633;28;20229;-68
2023/11/19 03:14:58;;;;;;;3.63;1.90;;;;;;;9.67;100.00;96095.75;5037946;28;20221;-68
2023/11/19 03:17:25;;;;;;;3.83;2.57;;;;;;;9.69;100.00;96098.03;5036999;28;20201;-68
2023/11/19 03:19:52;;;;;;;3.57;1.93;;;;;;;9.85;100.00;96095.31;5038283;28;20201;-68
2023/11/19 03:22:20;;;;;;;2.93;1.73;;;;;;;9.52;100.00;96094.84;5039027;28;20220;-68
2023/11/19 03:24:47;;;;;;;5.13;2.33;;;;;;;9.60;100.00;96093.00;5037743;28;20235;-69
2023/11/19 03:27:13;;;;;;;3.30;1.73;;;;;;;9.64;100.00;96104.00;5037779;28;20212;-68
2023/11/19 03:29:40;;;;;;;4.03;2.13;;;;;;;9.75;100.00;96107.06;5037984;28;20221;-68
2023/11/19 03:32:06;;;;;;;3.83;1.93;;;;;;;9.58;100.00;96113.41;5038480;28;20201;-68
2023/11/19 03:34:33;;;;;;;4.27;2.20;;;;;;;9.76;100.00;96114.78;5037383;28;20318;-68
2023/11/19 03:37:01;;;;;;;2.73;2.10;;;;;;;9.68;100.00;96120.06;5038390;28;21144;-68
2023/11/19 03:39:27;;;;;;;3.83;2.13;;;;;;;9.76;100.00;96114.78;5036614;28;20197;-68
2023/11/19 03:41:54;;;;;;;2.97;2.00;;;;;;;9.75;100.00;96113.13;5037530;28;20671;-68
2023/11/19 03:44:21;;;;;;;4.33;2.03;;;;;;;9.72;100.00;96113.50;5037308;28;20229;-68
2023/11/19 03:46:48;;;;;;;3.60;2.27;;;;;;;9.78;100.00;96104.88;5037575;28;20201;-68
2023/11/19 03:49:14;;;;;;;4.37;2.47;;;;;;;9.86;100.00;96107.47;5037826;28;20263;-68
2023/11/19 03:51:41;;;;;;;4.20;2.20;;;;;;;9.87;100.00;96116.16;5037900;28;20209;-68
2023/11/19 03:54:08;;;;;;;3.27;2.10;;;;;;;10.03;100.00;96122.16;5037650;28;20346;-68
2023/11/19 03:56:35;;;;;;;3.03;1.70;;;;;;;9.96;100.00;96125.69;5036300;28;20205;-68
2023/11/19 03:59:02;;;;;;;3.73;1.87;;;;;;;9.87;100.00;96124.88;5037737;28;20212;-68
2023/11/19 04:01:28;;;;;;;3.83;2.37;;;;;;;9.99;100.00;96118.25;5037550;28;20204;-68
2023/11/19 04:03:55;;;;;;;3.23;1.67;;;;;;;9.85;100.00;96124.25;5037265;28;20201;-68
2023/11/19 04:06:22;;;;;;;3.60;1.87;;;;;;;9.93;100.00;96133.91;5036459;28;20221;-68
2023/11/19 04:08:49;;;;;;;4.33;2.57;;;;;;;9.86;100.00;96131.16;5037802;28;20213;-67
2023/11/19 04:11:17;;;;;;;4.30;2.67;;;;;;;10.05;100.00;96135.16;5036706;28;20255;-68
2023/11/19 04:13:43;;;;;;;4.17;2.40;;;;;;;9.98;100.00;96124.50;5036938;28;20201;-68
2023/11/19 04:16:10;;;;;;;4.37;2.10;;;;;;;9.88;100.00;96110.72;5037133;28;20568;-67
2023/11/19 04:18:36;;;;;;;3.33;2.10;;;;;;;10.06;100.00;96119.19;5036876;28;20212;-67
2023/11/19 04:21:07;;;;;;;3.23;1.93;;;;;;;10.25;100.00;96116.06;5036882;28;20212;-67
2023/11/19 04:23:34;;;;;;;3.37;2.33;;;;;;;10.11;100.00;96118.66;5037044;28;20584;-68
2023/11/19 04:26:04;;;;;;;3.77;2.30;;;;;;;10.31;100.00;96112.72;5036783;28;20229;-68
2023/11/19 04:28:31;;;;;;;3.57;2.37;;;;;;;10.07;100.00;96112.09;5037141;28;20200;-67
2023/11/19 04:30:58;;;;;;;3.33;2.00;;;;;;;10.05;100.00;96119.34;5037651;28;20225;-67
2023/11/19 04:33:25;;;;;;;4.37;2.33;;;;;;;10.05;100.00;96122.00;5036627;28;20680;-68
2023/11/19 04:35:51;;;;;;;4.73;2.47;;;;;;;10.05;100.00;96111.47;5036155;28;20251;-68
2023/11/19 04:38:18;;;;;;;3.10;1.80;;;;;;;10.04;100.00;96108.03;5036808;28;20232;-67
2023/11/19 04:40:44;;;;;;;2.87;1.80;;;;;;;10.03;100.00;96106.38;5036451;28;20220;-67
2023/11/19 04:43:10;;;;;;;4.27;2.07;;;;;;;10.10;100.00;96107.28;5036893;28;20216;-68
2023/11/19 04:45:39;;;;;;;3.20;2.13;;;;;;;10.23;100.00;96099.59;5035634;28;20225;-67
2023/11/19 04:48:06;;;;;;;3.37;2.20;;;;;;;10.05;100.00;96101.72;5036976;28;20203;-68
2023/11/19 04:50:32;;;;;;;4.00;2.07;;;;;;;10.18;100.00;96104.59;5036101;28;20221;-68
2023/11/19 04:52:59;;;;;;;4.23;1.97;;;;;;;10.28;100.00;96107.78;5036815;28;20205;-68
2023/11/19 04:55:26;;;;;;;3.60;2.03;;;;;;;10.18;100.00;96101.94;5035997;28;20299;-67
2023/11/19 04:57:55;;;;;;;3.90;2.23;;;;;;;10.35;100.00;96098.19;5036829;28;20224;-67
2023/11/19 05:00:22;;;;;;;4.10;2.17;;;;;;;10.18;100.00;96104.59;5036390;28;20205;-68
2023/11/19 05:02:50;;;;;;;3.83;2.10;;;;;;;10.40;100.00;96111.66;5036827;28;20209;-68
2023/11/19 05:05:17;;;;;;;5.20;2.80;;;;;;;10.19;100.00;96105.41;5035272;28;20256;-67
2023/11/19 05:07:43;;;;;;;4.50;2.43;;;;;;;10.25;100.00;96108.16;5036078;28;20201;-69
2023/11/19 05:10:10;;;;;;;3.70;2.30;;;;;;;10.13;100.00;96099.06;5036200;28;20899;-68
2023/11/19 05:12:36;;;;;;;3.93;2.03;;;;;;;10.30;100.00;96111.09;5035947;28;20204;-68
2023/11/19 05:15:03;;;;;;;3.30;2.07;;;;;;;10.28;100.00;96107.00;5035921;28;20244;-67
2023/11/19 05:17:30;;;;;;;2.90;2.00;;;;;;;10.20;100.00;96123.66;5036461;28;20220;-67
2023/11/19 05:19:58;;;;;;;3.77;2.20;;;;;;;10.30;100.00;96100.53;5035701;28;20962;-67
2023/11/19 05:22:25;;;;;;;3.10;1.77;;;;;;;10.24;100.00;96113.59;5035704;28;20209;-67
2023/11/19 05:24:52;;;;;;;2.80;1.87;;;;;;;10.39;100.00;96102.91;5035546;28;20312;-68
2023/11/19 05:27:19;;;;;;;3.83;2.33;;;;;;;10.50;100.00;96102.50;5036042;28;20392;-68
2023/11/19 05:29:45;;;;;;;3.27;1.93;;;;;;;10.42;100.00;96113.13;5036097;28;20229;-68
2023/11/19 05:32:12;;;;;;;2.57;2.00;;;;;;;10.54;100.00;96105.59;5035863;28;20208;-67
2023/11/19 05:34:38;;;;;;;3.40;2.07;;;;;;;10.48;100.00;96103.66;5034982;28;20217;-67
2023/11/19 05:37:06;;;;;;;5.00;2.50;;;;;;;10.66;100.00;96106.78;5035982;28;20205;-68
2023/11/19 05:39:33;;;;;;;4.37;2.10;;;;;;;10.42;100.00;96096.47;5036323;28;20231;-68
2023/11/19 05:41:59;;;;;;;3.80;2.10;;;;;;;10.43;100.00;96092.84;5035887;28;20213;-67
2023/11/19 05:44:26;;;;;;;4.00;2.30;;;;;;;10.49;100.00;96090.31;5034704;28;20240;-69
2023/11/19 05:46:52;;;;;;;4.43;2.13;;;;;;;10.35;100.00;96100.84;5036620;28;20212;-67
2023/11/19 05:49:19;;;;;;;3.93;1.87;;;;;;;10.39;100.00;96104.75;5035119;28;20320;-67
2023/11/19 05:51:46;;;;;;;3.63;2.07;;;;;;;10.43;100.00;96098.13;5035792;28;20221;-67
2023/11/19 05:54:13;;;;;;;3.73;2.27;;;;;;;10.49;100.00;96098.22;5036430;28;20714;-68
2023/11/19 05:56:40;;;;;;;3.20;2.33;;;;;;;10.34;100.00;96115.00;5034911;28;20197;-68
2023/11/19 05:59:17;;;;;;;3.17;2.10;;;;;;;10.44;100.00;96110.28;5035357;28;20205;-68
2023/11/19 06:01:44;;;;;;;6.50;2.40;;;;;;;10.44;100.00;96105.03;5037089;28;20335;-68
2023/11/19 06:04:11;;;;;;;3.90;2.30;;;;;;;10.43;100.00;96119.19;5039864;28;20213;-68
2023/11/19 06:06:37;;;;;;;5.03;2.10;;;;;;;10.40;100.00;96109.03;5038565;28;20274;-67
2023/11/19 06:09:06;;;;;;;3.93;2.30;;;;;;;10.56;100.00;96106.22;5040016;28;20212;-67
2023/11/19 06:11:35;;;;;;;4.27;2.57;;;;;;;10.64;100.00;96116.66;5039641;28;20221;-68
2023/11/19 06:14:02;;;;;;;4.87;2.03;;;;;;;10.61;100.00;96117.03;5039062;28;20228;-67
2023/11/19 06:16:28;;;;;;;5.73;3.17;;;;;;;10.57;100.00;96121.03;5038931;28;20216;-68
2023/11/19 06:18:55;;;;;;;5.20;2.63;;;;;;;10.43;100.00;96114.72;5039454;28;20200;-67
2023/11/19 06:21:22;;;;;;;3.30;1.90;;;;;;;10.51;100.00;96121.75;5039230;28;20300;-67
2023/11/19 06:23:48;;;;;;;3.50;2.30;;;;;;;10.55;100.00;96129.13;5039057;28;20208;-68
2023/11/19 06:26:15;;;;;;;3.93;2.20;;;;;;;10.61;100.00;96128.38;5038895;28;20209;-67
2023/11/19 06:28:43;;;;;;;4.40;2.30;;;;;;;10.82;100.00;96130.31;5038816;28;20607;-68
2023/11/19 06:31:09;;;;;;;3.43;1.97;;;;;;;10.64;100.00;96127.22;5038670;28;20304;-67
2023/11/19 06:33:36;;;;;;;3.50;1.80;;;;;;;10.74;100.00;96133.84;5039539;28;20197;-68
2023/11/19 06:36:02;;;;;;;3.97;2.20;;;;;;;10.81;100.00;96134.78;5038735;28;20205;-67
2023/11/19 06:38:29;;;;;;;4.03;2.07;;;;;;;10.71;100.00;96134.22;5038693;28;20247;-66
2023/11/19 06:40:55;;;;;;;3.43;1.97;;;;;;;10.69;100.00;96136.22;5038770;28;20201;-66
2023/11/19 06:43:22;;;;;;;5.63;2.47;;;;;;;10.81;100.00;96133.97;5038406;28;20205;-66
2023/11/19 06:45:50;;;;;;;3.53;2.30;;;;;;;10.81;100.00;96141.88;5037857;28;20737;-66
2023/11/19 06:48:16;;;;;;;4.23;2.33;;;;;;;10.82;100.00;96146.97;5039380;28;20209;-67
2023/11/19 06:50:43;;;;;;;4.57;2.20;;;;;;;10.81;100.00;96147.97;5038535;28;20221;-67
2023/11/19 06:53:10;;;;;;;3.67;1.87;;;;;;;10.79;100.00;96146.50;5038554;28;20201;-66
2023/11/19 06:55:36;;;;;;;4.37;2.47;;;;;;;10.71;100.00;96154.50;5038640;28;20600;-67
2023/11/19 06:58:03;;;;;;;3.00;2.27;;;;;;;10.77;100.00;96151.13;5038119;28;20197;-67
2023/11/19 07:00:31;;;;;;;5.07;2.53;;;;;;;10.83;100.00;96159.13;5038168;28;20215;-66
2023/11/19 07:02:59;;;;;;;6.27;3.23;;;;;;;10.99;100.00;96159.78;5039438;28;20271;-67
2023/11/19 07:05:25;;;;;;;5.10;2.43;;;;;;;10.74;100.00;96154.94;5038257;28;20249;-67
2023/11/19 07:07:53;;;;;;;5.07;2.80;;;;;;;10.93;100.00;96164.16;5037514;28;20255;-67
2023/11/19 07:10:20;;;;;;;4.53;2.43;;;;;;;10.83;100.00;96167.03;5038532;28;20225;-67
2023/11/19 07:12:46;;;;;;;4.97;2.97;;;;;;;10.93;100.00;96170.22;5037967;28;20202;-67
2023/11/19 07:15:13;;;;;;;5.30;2.40;;;;;;;11.14;100.00;96165.88;5037226;28;20221;-67
2023/11/19 07:17:40;;;;;;;3.47;2.00;;;;;;;11.07;100.00;96162.34;5037791;28;20201;-68
2023/11/19 07:20:13;;;;;;;7.83;2.43;;;;;;;11.18;100.00;96168.97;5038661;28;20205;-67
2023/11/19 07:22:39;;;;;;;4.00;2.37;;;;;;;11.23;100.00;96164.78;5038008;28;20295;-67
2023/11/19 07:25:06;;;;;;;4.40;2.27;;;;;;;11.11;100.00;96175.97;5037497;28;20224;-67
2023/11/19 07:27:33;;;;;;;4.43;2.70;;;;;;;11.15;100.00;96171.97;5038100;28;21137;-67
2023/11/19 07:29:59;;;;;;;2.27;1.53;;;;;;;11.12;100.00;96164.41;5038172;28;20197;-67
2023/11/19 07:32:26;;;;;;;4.80;2.50;;;;;;;11.29;100.00;96160.59;5037876;28;20295;-67
2023/11/19 07:34:52;;;;;;;3.70;2.33;;;;;;;11.20;100.00;96162.53;5036885;28;20714;-67
2023/11/19 07:37:20;;;;;;;4.10;2.33;;;;;;;11.48;100.00;96166.16;5037884;28;20215;-67
2023/11/19 07:39:46;;;;;;;3.47;2.40;;;;;;;11.40;100.00;96162.78;5037037;28;21278;-68
2023/11/19 07:42:13;;;;;;;3.13;2.20;;;;;;;11.34;100.00;96163.50;5037774;28;20201;-67
2023/11/19 07:44:39;;;;;;;3.90;2.10;;;;;;;11.31;100.00;96164.69;5036754;28;20217;-67
2023/11/19 07:47:06;;;;;;;3.53;2.07;;;;;;;11.43;100.00;96168.50;5037564;28;20197;-67
2023/11/19 07:49:32;;;;;;;5.83;3.23;;;;;;;11.56;100.00;96171.34;5037902;28;20201;-67
2023/11/19 07:51:59;;;;;;;5.27;2.70;;;;;;;11.61;100.00;96174.25;5037505;28;20582;-67
2023/11/19 07:54:27;;;;;;;5.90;2.50;;;;;;;11.66;100.00;96169.25;5036845;28;20991;-66
2023/11/19 07:56:53;;;;;;;3.77;1.63;;;;;;;11.47;100.00;96175.06;5037472;28;20201;-67
2023/11/19 07:59:20;;;;;;;3.37;1.90;;;;;;;11.65;100.00;96186.88;5037553;28;20213;-67
2023/11/19 08:01:46;;;;;;;2.20;1.40;;;;;;;11.42;100.00;96190.63;5037558;28;20193;-67
2023/11/19 08:04:13;;;;;;;2.93;1.80;;;;;;;11.63;100.00;96190.69;5037274;28;20217;-67
2023/11/19 08:06:40;;;;;;;2.10;1.83;;;;;;;11.70;100.00;96187.16;5036725;28;20679;-67
2023/11/19 08:09:13;;;;;;;3.20;1.80;;;;;;;11.58;100.00;96182.50;5037318;28;20197;-67
2023/11/19 08:11:41;;;;;;;1.80;1.40;;;;;;;11.86;100.00;96200.16;5036903;28;20257;-67
2023/11/19 08:14:08;;;;;;;2.40;1.60;;;;;;;11.70;100.00;96191.63;5036797;28;20237;-67
2023/11/19 08:16:34;;;;;;;1.77;1.23;;;;;;;11.68;100.00;96194.44;5036736;28;20205;-67
2023/11/19 08:19:01;;;;;;;2.33;1.27;;;;;;;11.69;100.00;96200.53;5037030;28;20201;-67
2023/11/19 08:21:27;;;;;;;2.73;1.60;;;;;;;11.81;100.00;96196.41;5036831;28;20210;-66
2023/11/19 08:23:54;;;;;;;1.60;1.30;;;;;;;11.76;100.00;96196.97;5036455;28;20205;-68
2023/11/19 08:26:20;;;;;;;2.87;1.60;;;;;;;11.89;100.00;96199.75;5037122;28;20229;-67
2023/11/19 08:28:48;;;;;;;4.60;1.53;;;;;;;11.90;100.00;96198.75;5036635;28;20205;-66
2023/11/19 08:31:15;;;;;;;1.63;1.23;;;;;;;11.77;100.00;96190.69;5036053;28;20272;-66
2023/11/19 08:33:41;;;;;;;2.43;1.20;;;;;;;11.88;100.00;96195.47;5037207;28;20205;-68
2023/11/19 08:36:09;;;;;;;2.30;1.37;;;;;;;11.73;100.00;96197.31;5035867;28;20296;-68
2023/11/19 08:38:35;;;;;;;2.53;1.37;;;;;;;11.63;100.00;96194.19;5036186;28;20671;-68
2023/11/19 08:41:02;;;;;;;2.33;1.70;;;;;;;11.58;100.00;96188.63;5036428;28;20677;-67
2023/11/19 08:43:29;;;;;;;2.70;1.67;;;;;;;11.96;100.00;96189.28;5035872;28;20208;-67
2023/11/19 08:45:57;;;;;;;2.00;1.73;;;;;;;11.91;100.00;96183.72;5035747;28;20290;-68
2023/11/19 08:48:23;;;;;;;2.90;1.57;;;;;;;11.76;100.00;96188.22;5036700;28;20205;-68
2023/11/19 08:50:50;;;;;;;2.13;1.43;;;;;;;11.90;100.00;96179.44;5036335;28;20225;-67
2023/11/19 08:53:16;;;;;;;1.70;1.40;;;;;;;11.89;100.00;96180.44;5036116;28;20292;-66
2023/11/19 08:55:43;;;;;;;7.20;1.80;;;;;;;11.98;100.00;96187.28;5035857;28;20225;-67
2023/11/19 08:58:09;;;;;;;2.67;1.60;;;;;;;12.00;100.00;96196.63;5036361;28;20201;-68
2023/11/19 09:00:36;;;;;;;1.73;1.10;;;;;;;11.90;100.00;96187.38;5036165;28;20232;-67
2023/11/19 09:03:04;;;;;;;2.00;1.50;;;;;;;12.27;100.00;96186.16;5036470;28;20201;-67
2023/11/19 09:05:30;;;;;;;2.73;1.70;;;;;;;12.09;100.00;96176.22;5034936;28;20241;-68
2023/11/19 09:07:57;;;;;;;2.20;1.50;;;;;;;12.19;100.00;96182.81;5036185;28;20209;-68
2023/11/19 09:10:23;;;;;;;2.33;1.70;;;;;;;12.26;100.00;96181.88;5036059;28;20205;-67
2023/11/19 09:12:50;;;;;;;2.43;1.53;;;;;;;12.29;100.00;96178.03;5035319;28;20228;-67
2023/11/19 09:15:16;;;;;;;1.97;1.27;;;;;;;12.16;100.00;96173.44;5035025;28;20233;-67
2023/11/19 09:17:43;;;;;;;1.83;1.43;;;;;;;12.34;100.00;96171.19;5035834;28;20228;-67
2023/11/19 09:20:15;;;;;;;1.63;1.10;;;;;;;12.56;100.00;96177.28;5036244;28;20910;-67
2023/11/19 09:22:41;;;;;;;7.30;1.30;;;;;;;12.59;100.00;96174.25;5036064;28;20233;-67
2023/11/19 09:25:09;;;;;;;1.97;1.50;;;;;;;12.66;100.00;96183.88;5035596;28;20221;-66
2023/11/19 09:27:35;;;;;;;1.63;1.23;;;;;;;12.69;100.00;96180.88;5036153;28;20908;-67
2023/11/19 09:30:03;;;;;;;1.57;0.90;;;;;;;12.77;100.00;96167.50;5035501;28;20209;-67
2023/11/19 09:32:30;;;;;;;1.70;1.10;;;;;;;12.83;100.00;96187.91;5036018;28;20309;-67
2023/11/19 09:34:56;;;;;;;1.70;1.20;;;;;;;13.12;100.00;96185.91;5035540;28;20221;-67
2023/11/19 09:37:24;;;;;;;2.20;1.30;;;;;;;13.29;100.00;96183.75;5035427;28;20209;-67
2023/11/19 09:39:51;;;;;;;2.00;1.13;;;;;;;13.01;100.00;96201.50;5035873;28;20208;-67
2023/11/19 09:42:17;;;;;;;1.70;1.37;;;;;;;13.07;100.00;96195.41;5035918;28;20205;-67
2023/11/19 09:44:44;;;;;;;1.87;1.30;;;;;;;13.26;100.00;96189.44;5034864;28;20225;-67
2023/11/19 09:47:12;;;;;;;1.97;1.37;;;;;;;13.35;100.00;96186.41;5035599;28;20690;-68
2023/11/19 09:49:39;;;;;;;1.70;1.20;;;;;;;13.26;100.00;96190.25;5036052;28;20205;-66
2023/11/19 09:52:06;;;;;;;1.23;0.80;;;;;;;13.20;100.00;96191.03;5035377;28;20227;-67
2023/11/19 09:54:34;;;;;;;2.10;1.30;;;;;;;13.32;100.00;96178.06;5035034;28;20229;-67
2023/11/19 09:57:03;;;;;;;1.97;1.07;;;;;;;13.39;100.00;96190.34;5035615;28;20679;-67
2023/11/19 09:59:30;;;;;;;1.60;1.20;;;;;;;13.13;100.00;96202.59;5035276;28;20267;-67
2023/11/19 10:01:57;;;;;;;2.30;1.20;;;;;;;13.26;100.00;96194.72;5035530;28;20212;-66
2023/11/19 10:04:26;;;;;;;1.87;1.10;;;;;;;13.39;100.00;96191.16;5035234;28;21193;-67
2023/11/19 10:06:53;;;;;;;0.70;0.67;;;;;;;13.09;100.00;96186.25;5035332;28;20212;-67
2023/11/19 10:09:19;;;;;;;1.50;1.00;;;;;;;13.32;100.00;96170.13;5035245;28;20284;-67
2023/11/19 10:11:47;;;;;;;1.20;1.03;;;;;;;13.42;100.00;96184.66;5035490;28;20225;-67
2023/11/19 10:14:15;;;;;;;1.90;1.10;;;;;;;12.98;100.00;96193.91;5035642;28;20687;-66
2023/11/19 10:16:42;;;;;;;1.73;1.17;;;;;;;13.00;100.00;96190.06;5034936;28;20214;-67
2023/11/19 10:19:19;;;;;;;1.93;1.00;;;;;;;13.26;100.00;96186.78;5035853;28;20271;-67
2023/11/19 10:21:46;;;;;;;1.67;1.00;;;;;;;13.48;100.00;96176.75;5035508;28;20201;-68
2023/11/19 10:24:13;;;;;;;1.40;1.20;;;;;;;13.36;100.00;96182.78;5034874;28;20711;-68
2023/11/19 10:26:41;;;;;;;1.43;1.07;;;;;;;13.38;100.00;96177.28;5034171;28;20667;-67
2023/11/19 10:29:09;;;;;;;4.93;2.70;;;;;;;13.57;100.00;96172.91;5035393;28;21342;-68
2023/11/19 10:31:35;;;;;;;3.33;2.07;;;;;;;13.38;100.00;96181.56;5035066;28;21009;-68
2023/11/19 10:34:02;;;;;;;1.70;1.10;;;;;;;13.46;100.00;96170.00;5035508;28;20603;-68
2023/11/19 10:36:38;;;;;;;1.17;1.07;;;;;;;13.88;100.00;96161.84;5035039;28;20201;-68
2023/11/19 10:39:05;;;;;;;1.93;1.40;;;;;;;13.67;100.00;96167.25;5035295;28;20205;-68
2023/11/19 10:41:32;;;;;;;1.10;0.90;;;;;;;13.61;100.00;96155.63;5034532;28;20197;-68
2023/11/19 10:43:59;;;;;;;1.47;1.03;;;;;;;13.78;100.00;96148.94;5035660;28;20221;-68
2023/11/19 10:46:39;;;;;;;1.20;1.00;;;;;;;14.02;100.00;96146.56;5034736;28;20660;-68
2023/11/19 10:49:06;;;;;;;1.43;1.00;;;;;;;14.10;100.00;96146.44;5038964;28;20704;-68
2023/11/19 10:51:33;;;;;;;1.00;0.80;;;;;;;14.03;100.00;96148.22;5038553;28;20338;-68
2023/11/19 10:54:05;;;;;;;0.50;0.50;;;;;;;14.18;100.00;96148.09;5038984;28;20236;-68
2023/11/19 10:56:32;;;;;;;0.50;0.50;;;;;;;14.10;100.00;96135.84;5038003;28;20295;-68
2023/11/19 10:59:00;;;;;;;1.10;0.60;;;;;;;14.10;100.00;96119.13;5039279;28;20212;-67
2023/11/19 11:01:33;;;;;;;0.60;0.60;;;;;;;14.34;100.00;96116.69;5038886;28;20233;-68
2023/11/19 11:04:02;;;;;;;1.03;0.67;;;;;;;14.37;100.00;96124.28;5037616;28;20224;-68
2023/11/19 11:06:29;;;;;;;1.27;0.80;;;;;;;14.27;100.00;96120.38;5037067;28;20224;-69
2023/11/19 11:08:57;;;;;;;1.70;1.00;;;;;;;14.54;100.00;96114.88;5038997;28;20836;-69
2023/11/19 11:11:24;;;;;;;1.70;0.90;;;;;;;14.70;100.00;96120.59;5038715;28;20220;-67
2023/11/19 11:13:52;;;;;;;1.13;0.90;;;;;;;14.49;100.00;96121.84;5038139;28;20213;-68
2023/11/19 11:16:20;;;;;;;0.67;0.67;;;;;;;14.43;100.00;96117.34;5037124;28;20217;-68
2023/11/19 11:18:49;;;;;;;0.60;0.60;;;;;;;14.58;100.00;96104.69;5037903;28;20209;-69
2023/11/19 11:21:22;;;;;;;1.43;0.67;;;;;;;14.82;100.00;96099.56;5038320;28;20288;-67
2023/11/19 11:24:08;;;;;;;2.07;1.10;;;;;;;15.11;100.00;96104.41;5037345;28;20292;-67
2023/11/19 11:27:10;;;;;;;1.80;0.70;;;;;;;15.03;100.00;96102.81;5037467;28;20209;-67
2023/11/19 11:29:43;;;;;;;1.90;0.60;;;;;;;15.09;100.00;96099.31;5036388;28;20208;-67